Terminal Aerodrome Forecast
Issued by NWS Twin Cities, MN

Home | Current Version | Previous Version | Graphics & Text | Print | Product List | Glossary On
Versions: 1 2 3 4 5 6 7 8 9 10 11 12 13 14 15
728
FTUS43 KMPX 172116 AAA
TAFSTC
TAF AMD
KSTC 172116Z 1721/1818 36007KT P6SM FEW200
     FM180000 07006KT P6SM SCT200
     FM180800 06006KT P6SM BKN020
     FM181200 03005KT P6SM BKN015=

USA.gov is the U.S. government's official web portal to all federal, state and local government web resources and services.